Terminal Aerodrome Forecast
Issued by NWS Northern Indiana

Home | Current Version | Previous Version | Text Only | Print | Product List | Glossary On
Versions: 1 2 3 4 5 6 7 8 9 10 11 12
000
FTUS43 KIWX 241120
TAFFWA
TAF
KFWA 241120Z 2412/2512 17008KT P6SM SCT025 BKN120
     FM241400 19010KT P6SM VCSH SCT030 BKN100
     FM242000 20011KT P6SM VCTS SCT030 BKN070CB
     FM242300 20008KT P6SM SHRA VCTS SCT030 BKN090CB
     FM250600 21007KT P6SM SCT030 BKN250=

USA.gov is the U.S. government's official web portal to all federal, state and local government web resources and services.